sensor_id;sensor_type;location;lat;lon;timestamp;P1;durP1;ratioP1;P2;durP2;ratioP2
69835;SDS011;57132;51.972;4.450;2023-05-31T00:00:41;7.07;;;4.03;;
69835;SDS011;57132;51.972;4.450;2023-05-31T00:03:12;9.80;;;4.45;;
69835;SDS011;57132;51.972;4.450;2023-05-31T00:05:52;9.55;;;5.05;;
69835;SDS011;57132;51.972;4.450;2023-05-31T00:08:18;9.13;;;4.85;;
69835;SDS011;57132;51.972;4.450;2023-05-31T00:10:43;9.77;;;4.15;;
69835;SDS011;57132;51.972;4.450;2023-05-31T00:13:09;8.18;;;4.90;;
69835;SDS011;57132;51.972;4.450;2023-05-31T00:15:35;8.27;;;4.70;;
69835;SDS011;57132;51.972;4.450;2023-05-31T00:18:13;10.57;;;4.43;;
69835;SDS011;57132;51.972;4.450;2023-05-31T00:20:38;10.07;;;5.38;;
69835;SDS011;57132;51.972;4.450;2023-05-31T00:23:04;9.80;;;5.40;;
69835;SDS011;57132;51.972;4.450;2023-05-31T00:25:34;8.30;;;4.75;;
69835;SDS011;57132;51.972;4.450;2023-05-31T00:28:00;8.57;;;4.57;;
69835;SDS011;57132;51.972;4.450;2023-05-31T00:30:25;7.85;;;4.80;;
69835;SDS011;57132;51.972;4.450;2023-05-31T00:32:51;9.85;;;5.43;;
69835;SDS011;57132;51.972;4.450;2023-05-31T00:35:19;11.00;;;5.53;;
69835;SDS011;57132;51.972;4.450;2023-05-31T00:37:44;10.32;;;5.03;;
69835;SDS011;57132;51.972;4.450;2023-05-31T00:43:30;12.60;;;5.38;;
69835;SDS011;57132;51.972;4.450;2023-05-31T00:45:56;11.20;;;5.63;;
69835;SDS011;57132;51.972;4.450;2023-05-31T00:48:21;11.52;;;5.40;;
69835;SDS011;57132;51.972;4.450;2023-05-31T00:50:47;12.40;;;5.20;;
69835;SDS011;57132;51.972;4.450;2023-05-31T00:53:29;11.70;;;5.13;;
69835;SDS011;57132;51.972;4.450;2023-05-31T00:56:01;14.75;;;6.15;;
69835;SDS011;57132;51.972;4.450;2023-05-31T00:58:46;9.45;;;5.30;;
69835;SDS011;57132;51.972;4.450;2023-05-31T01:01:22;11.90;;;6.00;;
69835;SDS011;57132;51.972;4.450;2023-05-31T01:03:51;10.50;;;5.70;;
69835;SDS011;57132;51.972;4.450;2023-05-31T01:06:26;10.32;;;5.10;;
69835;SDS011;57132;51.972;4.450;2023-05-31T01:08:57;10.65;;;5.60;;
69835;SDS011;57132;51.972;4.450;2023-05-31T01:17:29;10.13;;;5.47;;
69835;SDS011;57132;51.972;4.450;2023-05-31T01:20:05;9.82;;;5.57;;
69835;SDS011;57132;51.972;4.450;2023-05-31T01:28:08;14.23;;;6.10;;
69835;SDS011;57132;51.972;4.450;2023-05-31T01:30:36;14.10;;;6.45;;
69835;SDS011;57132;51.972;4.450;2023-05-31T01:33:05;12.40;;;6.55;;
69835;SDS011;57132;51.972;4.450;2023-05-31T01:35:43;12.27;;;6.47;;
69835;SDS011;57132;51.972;4.450;2023-05-31T01:38:09;13.00;;;6.78;;
69835;SDS011;57132;51.972;4.450;2023-05-31T01:40:34;15.13;;;6.68;;
69835;SDS011;57132;51.972;4.450;2023-05-31T01:43:01;16.05;;;6.82;;
69835;SDS011;57132;51.972;4.450;2023-05-31T01:45:29;12.48;;;5.78;;
69835;SDS011;57132;51.972;4.450;2023-05-31T01:47:58;15.40;;;6.50;;
69835;SDS011;57132;51.972;4.450;2023-05-31T01:50:30;13.13;;;5.82;;
69835;SDS011;57132;51.972;4.450;2023-05-31T01:52:58;11.23;;;5.85;;
69835;SDS011;57132;51.972;4.450;2023-05-31T01:55:23;14.07;;;6.15;;
69835;SDS011;57132;51.972;4.450;2023-05-31T01:57:49;14.50;;;6.57;;
69835;SDS011;57132;51.972;4.450;2023-05-31T02:00:16;13.85;;;6.57;;
69835;SDS011;57132;51.972;4.450;2023-05-31T02:02:42;16.13;;;6.72;;
69835;SDS011;57132;51.972;4.450;2023-05-31T02:05:12;14.05;;;6.40;;
69835;SDS011;57132;51.972;4.450;2023-05-31T02:07:38;16.33;;;6.85;;
69835;SDS011;57132;51.972;4.450;2023-05-31T02:10:06;14.30;;;7.20;;
69835;SDS011;57132;51.972;4.450;2023-05-31T02:12:32;16.85;;;6.72;;
69835;SDS011;57132;51.972;4.450;2023-05-31T02:15:00;12.82;;;6.75;;
69835;SDS011;57132;51.972;4.450;2023-05-31T02:17:26;13.40;;;6.43;;
69835;SDS011;57132;51.972;4.450;2023-05-31T02:19:54;17.83;;;6.60;;
69835;SDS011;57132;51.972;4.450;2023-05-31T02:22:19;14.50;;;6.80;;
69835;SDS011;57132;51.972;4.450;2023-05-31T02:24:46;13.45;;;6.47;;
69835;SDS011;57132;51.972;4.450;2023-05-31T02:27:14;17.13;;;7.72;;
69835;SDS011;57132;51.972;4.450;2023-05-31T02:29:40;16.70;;;6.80;;
69835;SDS011;57132;51.972;4.450;2023-05-31T02:32:06;13.52;;;6.82;;
69835;SDS011;57132;51.972;4.450;2023-05-31T02:34:32;15.63;;;6.43;;
69835;SDS011;57132;51.972;4.450;2023-05-31T02:37:07;16.83;;;8.10;;
69835;SDS011;57132;51.972;4.450;2023-05-31T02:39:33;17.98;;;6.85;;
69835;SDS011;57132;51.972;4.450;2023-05-31T02:41:59;18.45;;;7.10;;
69835;SDS011;57132;51.972;4.450;2023-05-31T02:44:24;16.70;;;7.40;;
69835;SDS011;57132;51.972;4.450;2023-05-31T02:46:50;15.23;;;6.93;;
69835;SDS011;57132;51.972;4.450;2023-05-31T02:49:15;13.57;;;6.55;;
69835;SDS011;57132;51.972;4.450;2023-05-31T02:51:41;16.48;;;7.65;;
69835;SDS011;57132;51.972;4.450;2023-05-31T02:54:09;17.92;;;7.95;;
69835;SDS011;57132;51.972;4.450;2023-05-31T02:56:39;19.17;;;7.72;;
69835;SDS011;57132;51.972;4.450;2023-05-31T02:59:05;16.83;;;7.25;;
69835;SDS011;57132;51.972;4.450;2023-05-31T03:01:39;14.80;;;6.90;;
69835;SDS011;57132;51.972;4.450;2023-05-31T03:04:04;16.45;;;7.07;;
69835;SDS011;57132;51.972;4.450;2023-05-31T03:06:33;14.75;;;7.15;;
69835;SDS011;57132;51.972;4.450;2023-05-31T03:09:11;13.00;;;7.20;;
69835;SDS011;57132;51.972;4.450;2023-05-31T03:14:33;19.02;;;8.57;;
69835;SDS011;57132;51.972;4.450;2023-05-31T03:17:06;15.90;;;7.65;;
69835;SDS011;57132;51.972;4.450;2023-05-31T03:19:34;17.77;;;7.45;;
69835;SDS011;57132;51.972;4.450;2023-05-31T03:22:00;23.63;;;8.20;;
69835;SDS011;57132;51.972;4.450;2023-05-31T03:24:25;19.08;;;8.23;;
69835;SDS011;57132;51.972;4.450;2023-05-31T03:26:51;23.88;;;8.05;;
69835;SDS011;57132;51.972;4.450;2023-05-31T03:29:18;17.17;;;8.05;;
69835;SDS011;57132;51.972;4.450;2023-05-31T03:31:47;20.35;;;8.82;;
69835;SDS011;57132;51.972;4.450;2023-05-31T03:34:13;16.98;;;7.75;;
69835;SDS011;57132;51.972;4.450;2023-05-31T03:36:38;20.50;;;8.40;;
69835;SDS011;57132;51.972;4.450;2023-05-31T03:39:16;21.23;;;8.18;;
69835;SDS011;57132;51.972;4.450;2023-05-31T03:41:44;22.30;;;8.60;;
69835;SDS011;57132;51.972;4.450;2023-05-31T03:44:13;25.50;;;8.63;;
69835;SDS011;57132;51.972;4.450;2023-05-31T03:46:38;22.80;;;8.75;;
69835;SDS011;57132;51.972;4.450;2023-05-31T03:49:04;19.55;;;7.90;;
69835;SDS011;57132;51.972;4.450;2023-05-31T03:51:30;19.52;;;9.35;;
69835;SDS011;57132;51.972;4.450;2023-05-31T03:53:56;19.73;;;8.23;;
69835;SDS011;57132;51.972;4.450;2023-05-31T03:56:25;22.40;;;9.23;;
69835;SDS011;57132;51.972;4.450;2023-05-31T03:59:02;21.70;;;9.00;;
69835;SDS011;57132;51.972;4.450;2023-05-31T04:01:31;27.73;;;9.63;;
69835;SDS011;57132;51.972;4.450;2023-05-31T04:04:06;26.33;;;9.57;;
69835;SDS011;57132;51.972;4.450;2023-05-31T04:06:41;25.60;;;8.60;;
69835;SDS011;57132;51.972;4.450;2023-05-31T04:09:07;20.52;;;9.43;;
69835;SDS011;57132;51.972;4.450;2023-05-31T04:11:32;26.08;;;8.98;;
69835;SDS011;57132;51.972;4.450;2023-05-31T04:13:58;21.65;;;9.70;;
69835;SDS011;57132;51.972;4.450;2023-05-31T04:16:23;24.65;;;9.38;;
69835;SDS011;57132;51.972;4.450;2023-05-31T04:18:49;25.33;;;9.20;;
69835;SDS011;57132;51.972;4.450;2023-05-31T04:21:14;27.52;;;9.45;;
69835;SDS011;57132;51.972;4.450;2023-05-31T04:23:43;26.83;;;8.90;;
69835;SDS011;57132;51.972;4.450;2023-05-31T04:26:23;26.25;;;9.23;;
69835;SDS011;57132;51.972;4.450;2023-05-31T04:28:56;22.85;;;9.45;;
69835;SDS011;57132;51.972;4.450;2023-05-31T04:31:30;21.73;;;8.98;;
69835;SDS011;57132;51.972;4.450;2023-05-31T04:34:08;23.17;;;9.18;;
69835;SDS011;57132;51.972;4.450;2023-05-31T04:36:34;24.92;;;10.27;;
69835;SDS011;57132;51.972;4.450;2023-05-31T04:39:01;24.42;;;9.60;;
69835;SDS011;57132;51.972;4.450;2023-05-31T04:41:34;17.08;;;7.78;;
69835;SDS011;57132;51.972;4.450;2023-05-31T04:44:00;23.35;;;8.55;;
69835;SDS011;57132;51.972;4.450;2023-05-31T04:46:25;27.50;;;9.45;;
69835;SDS011;57132;51.972;4.450;2023-05-31T04:48:53;27.27;;;9.07;;
69835;SDS011;57132;51.972;4.450;2023-05-31T04:51:20;28.17;;;9.57;;
69835;SDS011;57132;51.972;4.450;2023-05-31T04:53:46;29.17;;;9.50;;
69835;SDS011;57132;51.972;4.450;2023-05-31T04:56:12;28.83;;;9.02;;
69835;SDS011;57132;51.972;4.450;2023-05-31T04:58:41;26.40;;;9.65;;
69835;SDS011;57132;51.972;4.450;2023-05-31T05:01:07;24.17;;;9.88;;
69835;SDS011;57132;51.972;4.450;2023-05-31T05:03:33;23.83;;;9.20;;
69835;SDS011;57132;51.972;4.450;2023-05-31T05:06:00;27.90;;;9.63;;
69835;SDS011;57132;51.972;4.450;2023-05-31T05:08:27;25.77;;;10.07;;
69835;SDS011;57132;51.972;4.450;2023-05-31T05:10:53;24.50;;;9.55;;
69835;SDS011;57132;51.972;4.450;2023-05-31T05:13:31;22.65;;;10.45;;
69835;SDS011;57132;51.972;4.450;2023-05-31T05:15:56;27.58;;;9.98;;
69835;SDS011;57132;51.972;4.450;2023-05-31T05:18:22;24.27;;;10.20;;
69835;SDS011;57132;51.972;4.450;2023-05-31T05:20:47;25.05;;;10.50;;
69835;SDS011;57132;51.972;4.450;2023-05-31T05:23:16;27.13;;;10.10;;
69835;SDS011;57132;51.972;4.450;2023-05-31T05:25:41;31.25;;;9.90;;
69835;SDS011;57132;51.972;4.450;2023-05-31T05:28:07;27.35;;;10.35;;
69835;SDS011;57132;51.972;4.450;2023-05-31T05:30:33;24.38;;;10.02;;
69835;SDS011;57132;51.972;4.450;2023-05-31T05:33:13;30.58;;;10.95;;
69835;SDS011;57132;51.972;4.450;2023-05-31T05:35:44;30.17;;;10.98;;
69835;SDS011;57132;51.972;4.450;2023-05-31T05:38:16;26.17;;;9.82;;
69835;SDS011;57132;51.972;4.450;2023-05-31T05:40:41;29.00;;;10.52;;
69835;SDS011;57132;51.972;4.450;2023-05-31T05:43:26;29.40;;;10.43;;
69835;SDS011;57132;51.972;4.450;2023-05-31T05:46:04;27.13;;;10.95;;
69835;SDS011;57132;51.972;4.450;2023-05-31T05:48:30;29.83;;;11.50;;
69835;SDS011;57132;51.972;4.450;2023-05-31T05:51:05;28.35;;;10.82;;
69835;SDS011;57132;51.972;4.450;2023-05-31T05:53:40;29.42;;;10.85;;
69835;SDS011;57132;51.972;4.450;2023-05-31T05:56:06;33.85;;;10.70;;
69835;SDS011;57132;51.972;4.450;2023-05-31T05:58:31;28.73;;;11.00;;
69835;SDS011;57132;51.972;4.450;2023-05-31T06:07:44;23.67;;;10.17;;
69835;SDS011;57132;51.972;4.450;2023-05-31T06:10:28;30.85;;;11.60;;
69835;SDS011;57132;51.972;4.450;2023-05-31T06:24:29;25.80;;;10.85;;
69835;SDS011;57132;51.972;4.450;2023-05-31T06:33:48;31.13;;;12.10;;
69835;SDS011;57132;51.972;4.450;2023-05-31T07:17:13;32.13;;;12.63;;
69835;SDS011;57132;51.972;4.450;2023-05-31T07:27:22;21.48;;;10.82;;
69835;SDS011;57132;51.972;4.450;2023-05-31T07:41:19;28.45;;;10.75;;
69835;SDS011;57132;51.972;4.450;2023-05-31T07:55:49;29.45;;;10.98;;
69835;SDS011;57132;51.972;4.450;2023-05-31T07:58:18;26.23;;;10.90;;
69835;SDS011;57132;51.972;4.450;2023-05-31T08:01:10;32.45;;;11.52;;
69835;SDS011;57132;51.972;4.450;2023-05-31T08:07:22;23.37;;;10.37;;
69835;SDS011;57132;51.972;4.450;2023-05-31T08:10:26;18.67;;;9.45;;
69835;SDS011;57132;51.972;4.450;2023-05-31T08:18:33;20.83;;;10.27;;
69835;SDS011;57132;51.972;4.450;2023-05-31T08:21:07;28.75;;;10.60;;
69835;SDS011;57132;51.972;4.450;2023-05-31T08:28:43;26.05;;;10.63;;
69835;SDS011;57132;51.972;4.450;2023-05-31T08:49:11;25.15;;;10.13;;
69835;SDS011;57132;51.972;4.450;2023-05-31T09:09:57;21.65;;;8.85;;
69835;SDS011;57132;51.972;4.450;2023-05-31T10:12:02;22.05;;;8.70;;
69835;SDS011;57132;51.972;4.450;2023-05-31T10:15:09;14.75;;;8.45;;
69835;SDS011;57132;51.972;4.450;2023-05-31T10:24:22;19.45;;;7.18;;
69835;SDS011;57132;51.972;4.450;2023-05-31T10:46:24;15.02;;;7.38;;
69835;SDS011;57132;51.972;4.450;2023-05-31T10:52:13;18.35;;;7.45;;
69835;SDS011;57132;51.972;4.450;2023-05-31T11:02:35;16.65;;;7.28;;
69835;SDS011;57132;51.972;4.450;2023-05-31T11:15:41;15.07;;;6.82;;
69835;SDS011;57132;51.972;4.450;2023-05-31T11:46:25;19.75;;;6.75;;
69835;SDS011;57132;51.972;4.450;2023-05-31T11:48:53;14.50;;;5.88;;
69835;SDS011;57132;51.972;4.450;2023-05-31T12:13:04;9.95;;;5.35;;
69835;SDS011;57132;51.972;4.450;2023-05-31T12:16:23;12.77;;;4.70;;
69835;SDS011;57132;51.972;4.450;2023-05-31T12:22:06;10.93;;;4.68;;
69835;SDS011;57132;51.972;4.450;2023-05-31T12:33:41;11.68;;;5.10;;
69835;SDS011;57132;51.972;4.450;2023-05-31T12:36:21;13.85;;;5.70;;
69835;SDS011;57132;51.972;4.450;2023-05-31T12:42:00;14.70;;;5.15;;
69835;SDS011;57132;51.972;4.450;2023-05-31T12:47:58;8.23;;;4.40;;
69835;SDS011;57132;51.972;4.450;2023-05-31T12:50:32;12.23;;;4.57;;
69835;SDS011;57132;51.972;4.450;2023-05-31T13:02:01;9.48;;;4.68;;
69835;SDS011;57132;51.972;4.450;2023-05-31T13:04:30;14.25;;;4.65;;
69835;SDS011;57132;51.972;4.450;2023-05-31T13:09:57;9.20;;;4.32;;
69835;SDS011;57132;51.972;4.450;2023-05-31T13:15:26;11.20;;;4.68;;
69835;SDS011;57132;51.972;4.450;2023-05-31T13:18:02;11.65;;;4.57;;
69835;SDS011;57132;51.972;4.450;2023-05-31T13:20:31;9.75;;;5.03;;
69835;SDS011;57132;51.972;4.450;2023-05-31T13:23:08;10.43;;;4.20;;
69835;SDS011;57132;51.972;4.450;2023-05-31T13:32:08;17.90;;;5.32;;
69835;SDS011;57132;51.972;4.450;2023-05-31T13:34:44;14.75;;;4.97;;
69835;SDS011;57132;51.972;4.450;2023-05-31T13:37:09;15.60;;;5.05;;
69835;SDS011;57132;51.972;4.450;2023-05-31T13:39:55;13.27;;;5.60;;
69835;SDS011;57132;51.972;4.450;2023-05-31T13:55:18;14.27;;;5.95;;
69835;SDS011;57132;51.972;4.450;2023-05-31T14:46:24;8.43;;;4.68;;
69835;SDS011;57132;51.972;4.450;2023-05-31T15:37:14;12.70;;;5.60;;
69835;SDS011;57132;51.972;4.450;2023-05-31T16:54:46;16.88;;;8.98;;
69835;SDS011;57132;51.972;4.450;2023-05-31T17:45:21;16.30;;;8.43;;
69835;SDS011;57132;51.972;4.450;2023-05-31T18:08:46;26.50;;;10.38;;
69835;SDS011;57132;51.972;4.450;2023-05-31T18:11:17;21.70;;;10.27;;
69835;SDS011;57132;51.972;4.450;2023-05-31T18:13:55;19.15;;;9.10;;
69835;SDS011;57132;51.972;4.450;2023-05-31T18:19:44;21.33;;;9.65;;
69835;SDS011;57132;51.972;4.450;2023-05-31T18:30:59;22.67;;;10.35;;
69835;SDS011;57132;51.972;4.450;2023-05-31T18:33:27;20.52;;;10.35;;
69835;SDS011;57132;51.972;4.450;2023-05-31T18:45:23;20.95;;;11.15;;
69835;SDS011;57132;51.972;4.450;2023-05-31T18:47:52;24.67;;;12.52;;
69835;SDS011;57132;51.972;4.450;2023-05-31T18:51:10;24.02;;;10.82;;
69835;SDS011;57132;51.972;4.450;2023-05-31T18:53:44;22.13;;;11.15;;
69835;SDS011;57132;51.972;4.450;2023-05-31T19:02:25;19.88;;;9.57;;
69835;SDS011;57132;51.972;4.450;2023-05-31T19:05:00;16.73;;;9.43;;
69835;SDS011;57132;51.972;4.450;2023-05-31T19:18:41;22.20;;;8.98;;
69835;SDS011;57132;51.972;4.450;2023-05-31T19:21:11;19.75;;;9.40;;
69835;SDS011;57132;51.972;4.450;2023-05-31T19:26:39;20.38;;;10.18;;
69835;SDS011;57132;51.972;4.450;2023-05-31T19:29:28;22.58;;;10.20;;
69835;SDS011;57132;51.972;4.450;2023-05-31T19:32:01;19.92;;;10.45;;
69835;SDS011;57132;51.972;4.450;2023-05-31T19:34:32;16.80;;;9.10;;
69835;SDS011;57132;51.972;4.450;2023-05-31T19:37:28;24.77;;;9.80;;
69835;SDS011;57132;51.972;4.450;2023-05-31T19:43:12;21.83;;;11.38;;
69835;SDS011;57132;51.972;4.450;2023-05-31T19:51:33;20.45;;;10.15;;
69835;SDS011;57132;51.972;4.450;2023-05-31T19:53:58;25.35;;;11.07;;
69835;SDS011;57132;51.972;4.450;2023-05-31T19:56:26;21.95;;;10.63;;
69835;SDS011;57132;51.972;4.450;2023-05-31T20:01:50;22.45;;;11.27;;
69835;SDS011;57132;51.972;4.450;2023-05-31T20:18:05;25.30;;;11.18;;
69835;SDS011;57132;51.972;4.450;2023-05-31T20:31:52;26.95;;;11.40;;
69835;SDS011;57132;51.972;4.450;2023-05-31T20:39:29;24.85;;;11.50;;
69835;SDS011;57132;51.972;4.450;2023-05-31T20:42:23;31.50;;;12.63;;
69835;SDS011;57132;51.972;4.450;2023-05-31T20:44:52;29.02;;;11.57;;
69835;SDS011;57132;51.972;4.450;2023-05-31T20:50:11;24.13;;;10.27;;
69835;SDS011;57132;51.972;4.450;2023-05-31T20:55:22;26.50;;;10.90;;
69835;SDS011;57132;51.972;4.450;2023-05-31T21:02:08;32.60;;;13.23;;
69835;SDS011;57132;51.972;4.450;2023-05-31T21:04:33;27.30;;;12.55;;
69835;SDS011;57132;51.972;4.450;2023-05-31T21:22:34;30.02;;;13.20;;
69835;SDS011;57132;51.972;4.450;2023-05-31T21:31:20;30.08;;;13.68;;
69835;SDS011;57132;51.972;4.450;2023-05-31T21:41:40;24.58;;;13.45;;
69835;SDS011;57132;51.972;4.450;2023-05-31T21:44:55;31.20;;;13.27;;
69835;SDS011;57132;51.972;4.450;2023-05-31T21:51:02;31.80;;;12.75;;
69835;SDS011;57132;51.972;4.450;2023-05-31T21:57:28;28.13;;;14.07;;
69835;SDS011;57132;51.972;4.450;2023-05-31T22:10:15;27.27;;;13.80;;
69835;SDS011;57132;51.972;4.450;2023-05-31T22:12:50;28.88;;;12.75;;
69835;SDS011;57132;51.972;4.450;2023-05-31T22:31:10;28.25;;;13.07;;
69835;SDS011;57132;51.972;4.450;2023-05-31T22:36:47;36.38;;;14.23;;
69835;SDS011;57132;51.972;4.450;2023-05-31T22:48:00;25.55;;;12.48;;
69835;SDS011;57132;51.972;4.450;2023-05-31T22:50:27;34.17;;;13.50;;
69835;SDS011;57132;51.972;4.450;2023-05-31T22:53:12;29.55;;;12.90;;
69835;SDS011;57132;51.972;4.450;2023-05-31T22:55:40;31.45;;;12.85;;
69835;SDS011;57132;51.972;4.450;2023-05-31T22:58:44;30.92;;;11.85;;
69835;SDS011;57132;51.972;4.450;2023-05-31T23:01:54;30.48;;;12.25;;
69835;SDS011;57132;51.972;4.450;2023-05-31T23:10:48;27.20;;;12.48;;
69835;SDS011;57132;51.972;4.450;2023-05-31T23:13:26;36.22;;;12.48;;
69835;SDS011;57132;51.972;4.450;2023-05-31T23:15:52;25.55;;;12.95;;
69835;SDS011;57132;51.972;4.450;2023-05-31T23:18:32;28.52;;;12.95;;
69835;SDS011;57132;51.972;4.450;2023-05-31T23:21:00;25.73;;;11.98;;
69835;SDS011;57132;51.972;4.450;2023-05-31T23:26:49;30.30;;;12.27;;
69835;SDS011;57132;51.972;4.450;2023-05-31T23:44:16;31.98;;;11.80;;
69835;SDS011;57132;51.972;4.450;2023-05-31T23:54:13;33.75;;;12.68;;
69835;SDS011;57132;51.972;4.450;2023-05-31T23:57:14;43.92;;;13.55;;
